createdAt,value
2022-08-12T00:00:20.994Z,102132.31
2022-08-12T00:03:06.593Z,102129.03
2022-08-12T00:06:03.930Z,102121.38
2022-08-12T00:08:52.552Z,102114.75
2022-08-12T00:11:40.826Z,102108.78
2022-08-12T00:14:26.820Z,102100.31
2022-08-12T00:17:12.588Z,102103.81
2022-08-12T00:19:58.084Z,102094.97
2022-08-12T00:22:43.932Z,102102.19
2022-08-12T00:25:55.850Z,102097.22
2022-08-12T00:28:36.512Z,102097.22
2022-08-12T00:31:22.454Z,102103.78
2022-08-12T00:34:08.160Z,102100.25
2022-08-12T00:36:54.049Z,102100.25
2022-08-12T00:39:40.555Z,102104.97
2022-08-12T00:42:11.951Z,102101.66
2022-08-12T00:44:48.311Z,102116.03
2022-08-12T00:47:24.529Z,102104.72
2022-08-12T00:49:55.624Z,102112.75
2022-08-12T00:52:25.119Z,102106.56
2022-08-12T00:54:57.430Z,102108.00
2022-08-12T00:57:29.038Z,102116.03
2022-08-12T00:59:59.537Z,102108.84
2022-08-12T01:02:29.703Z,102104.06
2022-08-12T01:05:18.390Z,102105.75
2022-08-12T01:08:06.048Z,102099.13
2022-08-12T01:10:55.036Z,102092.13
2022-08-12T01:13:24.097Z,102099.13
2022-08-12T01:15:56.159Z,102095.81
2022-08-12T01:18:27.402Z,102093.78
2022-08-12T01:21:07.949Z,102080.41
2022-08-12T01:23:47.477Z,102083.47
2022-08-12T01:26:21.133Z,102085.50
2022-08-12T01:28:52.637Z,102083.84
2022-08-12T01:31:22.223Z,102084.03
2022-08-12T01:34:03.685Z,102081.38
2022-08-12T01:36:36.460Z,102085.88
2022-08-12T01:39:06.117Z,102088.13
2022-08-12T01:41:41.163Z,102087.28
2022-08-12T01:44:10.827Z,102087.03
2022-08-12T01:46:53.442Z,102079.22
2022-08-12T01:49:51.823Z,102080.06
2022-08-12T01:52:30.703Z,102074.72
2022-08-12T01:55:01.205Z,102080.44
2022-08-12T01:57:58.702Z,102075.09
2022-08-12T02:00:55.404Z,102078.78
2022-08-12T02:03:54.598Z,102075.09
2022-08-12T02:06:48.342Z,102073.44
2022-08-12T02:09:40.248Z,102079.16
2022-08-12T02:12:24.273Z,102073.19
2022-08-12T02:15:04.725Z,102075.03
2022-08-12T02:17:55.819Z,102067.22
2022-08-12T02:20:35.121Z,102066.19
2022-08-12T02:23:20.690Z,102064.28
2022-08-12T02:25:52.018Z,102064.28
2022-08-12T02:28:20.165Z,102066.31
2022-08-12T02:30:50.876Z,102057.69
2022-08-12T02:33:21.079Z,102059.72
2022-08-12T02:35:51.726Z,102058.06
2022-08-12T02:38:22.996Z,102050.88
2022-08-12T02:40:55.246Z,102053.34
2022-08-12T02:43:32.161Z,102056.22
2022-08-12T02:46:10.393Z,102056.41
2022-08-12T02:48:47.716Z,102044.25
2022-08-12T02:51:21.642Z,102051.44
2022-08-12T02:54:04.307Z,102052.47
2022-08-12T02:56:37.931Z,102049.16
2022-08-12T02:59:12.456Z,102048.72
2022-08-12T03:01:48.531Z,102052.41
2022-08-12T03:04:27.481Z,102052.59
2022-08-12T03:07:05.633Z,102049.31
2022-08-12T03:09:54.313Z,102040.63
2022-08-12T03:12:33.950Z,102038.38
2022-08-12T03:15:06.654Z,102043.72
2022-08-12T03:17:44.043Z,102044.28
2022-08-12T03:20:16.237Z,102034.41
2022-08-12T03:22:46.040Z,102040.38
2022-08-12T03:25:18.189Z,102031.34
2022-08-12T03:27:51.892Z,102033.41
2022-08-12T03:30:21.172Z,102028.06
2022-08-12T03:32:52.838Z,102028.44
2022-08-12T03:35:40.622Z,102022.84
2022-08-12T03:38:16.282Z,102029.41
2022-08-12T03:41:15.262Z,102015.03
2022-08-12T03:44:07.545Z,102015.22
2022-08-12T03:46:57.846Z,102014.91
2022-08-12T03:49:45.989Z,102014.47
2022-08-12T03:52:31.847Z,102013.66
2022-08-12T03:55:17.721Z,102010.34
2022-08-12T03:58:03.560Z,102014.03
2022-08-12T04:00:31.987Z,102009.06
2022-08-12T04:03:01.786Z,102010.28
2022-08-12T04:05:54.534Z,102007.16
2022-08-12T04:08:25.475Z,102014.53
2022-08-12T04:11:20.477Z,102009.56
2022-08-12T04:13:48.767Z,102009.56
2022-08-12T04:16:18.060Z,102000.09
2022-08-12T04:18:46.674Z,102003.16
2022-08-12T04:21:16.188Z,102003.78
2022-08-12T04:23:48.398Z,101999.91
2022-08-12T04:26:17.405Z,102004.59
2022-08-12T04:28:45.861Z,102001.94
2022-08-12T04:31:14.512Z,102000.28
2022-08-12T04:33:43.991Z,101998.19
2022-08-12T04:36:12.268Z,101994.06
2022-08-12T04:38:43.246Z,101997.72
2022-08-12T04:41:12.450Z,101995.88
2022-08-12T04:43:59.727Z,102006.94
2022-08-12T04:46:33.521Z,102011.25
2022-08-12T04:49:03.774Z,102010.63
2022-08-12T04:51:32.529Z,102000.78
2022-08-12T04:54:02.781Z,102011.63
2022-08-12T04:56:35.520Z,102007.13
2022-08-12T04:59:04.474Z,102006.50
2022-08-12T05:01:32.869Z,102006.50
2022-08-12T05:04:02.889Z,102001.34
2022-08-12T05:06:31.111Z,102000.88
2022-08-12T05:09:00.704Z,102004.19
2022-08-12T05:11:30.362Z,101998.84
2022-08-12T05:14:02.299Z,102005.00
2022-08-12T05:16:34.329Z,101991.50
2022-08-12T05:19:05.428Z,101992.94
2022-08-12T05:21:41.943Z,101993.59
2022-08-12T05:24:10.471Z,101996.06
2022-08-12T05:26:41.105Z,102000.22
2022-08-12T05:30:08.051Z,102005.56
2022-08-12T05:32:00.709Z,101998.75
2022-08-12T05:34:29.097Z,101997.56
2022-08-12T05:36:57.466Z,101997.34
2022-08-12T05:39:25.705Z,101999.81
2022-08-12T05:41:55.957Z,102001.47
2022-08-12T05:44:24.156Z,101999.19
2022-08-12T05:46:52.367Z,102007.66
2022-08-12T05:49:20.511Z,102003.16
2022-08-12T05:51:48.677Z,102001.31
2022-08-12T05:54:17.104Z,102001.75
2022-08-12T05:56:45.783Z,102002.38
2022-08-12T05:59:15.604Z,102000.19
2022-08-12T06:02:10.974Z,102001.44
2022-08-12T06:04:33.477Z,102004.38
2022-08-12T06:08:00.278Z,101999.28
2022-08-12T06:09:53.830Z,101988.41
2022-08-12T06:12:23.429Z,101987.25
2022-08-12T06:14:55.881Z,101979.66
2022-08-12T06:17:24.201Z,101978.47
2022-08-12T06:20:26.046Z,101975.44
2022-08-12T06:22:40.882Z,101980.38
2022-08-12T06:25:10.229Z,101977.31
2022-08-12T06:28:08.018Z,101974.06
2022-08-12T06:30:39.838Z,101976.16
2022-08-12T06:33:22.270Z,101979.28
2022-08-12T06:35:52.504Z,101984.03
2022-08-12T06:38:28.107Z,101983.63
2022-08-12T06:41:15.215Z,101973.41
2022-08-12T06:44:05.776Z,101972.81
2022-08-12T06:46:35.145Z,101980.47
2022-08-12T06:49:03.558Z,101977.00
2022-08-12T06:51:33.001Z,101979.69
2022-08-12T06:54:02.362Z,101978.66
2022-08-12T06:57:01.766Z,101975.59
2022-08-12T06:59:21.479Z,101970.03
2022-08-12T07:01:52.070Z,101976.22
2022-08-12T07:04:38.389Z,101973.53
2022-08-12T07:07:08.357Z,101974.38
2022-08-12T07:10:05.153Z,101979.53
2022-08-12T07:12:28.164Z,101980.97
2022-08-12T07:14:57.343Z,101972.03
2022-08-12T07:17:31.682Z,101971.84
2022-08-12T07:20:04.165Z,101973.22
2022-08-12T07:22:33.212Z,101973.75
2022-08-12T07:25:18.797Z,101967.16
2022-08-12T07:27:47.158Z,101960.97
2022-08-12T07:30:15.692Z,101960.31
2022-08-12T07:32:47.578Z,101958.00
2022-08-12T07:35:15.691Z,101969.94
2022-08-12T07:37:44.326Z,101969.94
2022-08-12T07:40:13.330Z,101975.72
2022-08-12T07:42:44.257Z,101966.44
2022-08-12T07:45:14.156Z,101972.47
2022-08-12T07:47:44.936Z,101978.50
2022-08-12T07:50:14.371Z,101989.81
2022-08-12T07:52:44.890Z,101986.53
2022-08-12T07:55:13.925Z,101989.63
2022-08-12T07:57:56.057Z,102000.78
2022-08-12T08:00:25.148Z,101997.47
2022-08-12T08:02:55.257Z,101984.06
2022-08-12T08:05:25.071Z,102000.13
2022-08-12T08:07:55.747Z,101996.63
2022-08-12T08:10:23.977Z,101998.50
2022-08-12T08:12:54.071Z,101999.09
2022-08-12T08:15:38.704Z,101995.19
2022-08-12T08:18:26.620Z,102000.75
2022-08-12T08:20:56.800Z,101992.91
2022-08-12T08:23:56.156Z,101990.88
2022-08-12T08:26:27.250Z,101994.34
2022-08-12T08:28:55.674Z,101996.84
2022-08-12T08:31:23.895Z,101997.69
2022-08-12T08:34:04.235Z,101995.41
2022-08-12T08:36:39.296Z,101992.91
2022-08-12T08:39:08.213Z,102000.53
2022-08-12T08:42:15.460Z,101989.81
2022-08-12T08:44:42.384Z,101995.97
2022-08-12T08:47:12.252Z,101992.66
2022-08-12T08:49:41.962Z,102007.66
2022-08-12T08:52:12.225Z,101997.13
2022-08-12T08:54:40.723Z,101993.38
2022-08-12T08:57:10.192Z,101992.34
2022-08-12T08:59:38.359Z,101977.00
2022-08-12T09:02:07.757Z,101972.84
2022-08-12T09:05:13.155Z,101955.06
2022-08-12T09:07:51.466Z,101953.59
2022-08-12T09:10:30.562Z,101959.16
2022-08-12T09:13:23.468Z,101963.41
2022-08-12T09:15:57.685Z,101970.00
2022-08-12T09:21:16.799Z,101967.09
2022-08-12T09:23:58.906Z,101971.81
2022-08-12T09:26:45.983Z,101974.47
2022-08-12T09:29:15.459Z,101975.69
2022-08-12T09:32:06.529Z,101974.00
2022-08-12T09:34:37.795Z,101971.69
2022-08-12T09:37:19.312Z,101974.75
2022-08-12T09:40:04.999Z,101981.78
2022-08-12T09:43:17.053Z,101974.16
2022-08-12T09:46:06.524Z,101977.59
2022-08-12T09:48:39.293Z,101976.75
2022-08-12T09:51:10.968Z,101969.69
2022-08-12T09:54:06.017Z,101978.47
2022-08-12T09:57:02.065Z,101979.44
2022-08-12T10:00:17.898Z,101984.75
2022-08-12T10:02:45.709Z,101978.13
2022-08-12T10:05:09.372Z,101977.84
2022-08-12T10:07:41.754Z,101980.06
2022-08-12T10:10:24.266Z,101975.53
2022-08-12T10:13:35.205Z,101980.69
2022-08-12T10:16:05.848Z,101969.25
2022-08-12T10:18:52.396Z,101978.53
2022-08-12T10:21:23.352Z,101979.09
2022-08-12T10:23:55.201Z,101970.00
2022-08-12T10:26:43.108Z,101972.69
2022-08-12T10:30:03.098Z,101970.88
2022-08-12T10:32:44.341Z,101959.22
2022-08-12T10:35:14.668Z,101963.94
2022-08-12T10:38:34.605Z,101975.91
2022-08-12T10:40:34.483Z,101971.06
2022-08-12T10:43:23.085Z,101968.47
2022-08-12T10:45:58.314Z,101963.81
2022-08-12T10:48:33.924Z,101960.44
2022-08-12T10:52:04.893Z,101960.34
2022-08-12T10:54:00.655Z,101953.47
2022-08-12T10:56:34.439Z,101959.81
2022-08-12T10:59:05.434Z,101955.47
2022-08-12T11:04:18.107Z,101956.09
2022-08-12T11:04:41.268Z,101951.88
2022-08-12T11:08:33.860Z,101949.78
2022-08-12T11:10:02.853Z,101954.88
2022-08-12T11:12:55.347Z,101944.19
2022-08-12T11:15:32.674Z,101946.56
2022-08-12T11:18:18.662Z,101944.69
2022-08-12T11:20:51.984Z,101940.94
2022-08-12T11:23:25.344Z,101941.31
2022-08-12T11:26:07.979Z,101940.41
2022-08-12T11:28:38.366Z,101932.31
2022-08-12T11:31:09.806Z,101932.53
2022-08-12T11:34:05.995Z,101935.56
2022-08-12T11:36:31.344Z,101936.63
2022-08-12T11:39:04.509Z,101936.28
2022-08-12T11:41:35.897Z,101929.94
2022-08-12T11:44:30.729Z,101931.56
2022-08-12T11:46:55.183Z,101930.66
2022-08-12T11:49:31.993Z,101940.22
2022-08-12T11:52:17.647Z,101930.81
2022-08-12T11:54:54.295Z,101931.47
2022-08-12T11:58:10.064Z,101929.50
2022-08-12T12:03:00.728Z,101930.16
2022-08-12T12:05:41.905Z,101922.06
2022-08-12T12:08:37.561Z,101921.25
2022-08-12T12:11:09.947Z,101928.06
2022-08-12T12:14:08.918Z,101909.16
2022-08-12T12:16:27.047Z,101913.81
2022-08-12T12:18:58.081Z,101907.19
2022-08-12T12:21:48.531Z,101903.53
2022-08-12T12:24:20.875Z,101900.03
2022-08-12T12:26:59.616Z,101907.81
2022-08-12T12:30:18.483Z,101903.22
2022-08-12T12:32:18.967Z,101902.25
2022-08-12T12:35:18.336Z,101897.66
2022-08-12T12:38:05.162Z,101895.44
2022-08-12T12:40:29.853Z,101903.63
2022-08-12T12:43:03.022Z,101899.94
2022-08-12T12:45:35.534Z,101895.22
2022-08-12T12:48:05.847Z,101896.34
2022-08-12T12:50:45.111Z,101894.88
2022-08-12T12:54:08.095Z,101897.59
2022-08-12T12:56:16.356Z,101893.34
2022-08-12T12:58:44.758Z,101885.41
2022-08-12T13:01:28.066Z,101896.34
2022-08-12T13:04:02.564Z,101889.47
2022-08-12T13:06:32.374Z,101888.16
2022-08-12T13:09:04.434Z,101891.63
2022-08-12T13:11:42.261Z,101888.53
2022-08-12T13:14:29.166Z,101887.47
2022-08-12T13:17:02.824Z,101891.88
2022-08-12T13:19:38.628Z,101884.97
2022-08-12T13:22:21.405Z,101887.84
2022-08-12T13:24:56.530Z,101885.38
2022-08-12T13:27:35.737Z,101885.53
2022-08-12T13:30:11.383Z,101882.91
2022-08-12T13:32:40.930Z,101892.28
2022-08-12T13:35:19.293Z,101893.78
2022-08-12T13:37:54.699Z,101887.22
2022-08-12T13:40:27.192Z,101889.69
2022-08-12T13:42:57.767Z,101889.44
2022-08-12T13:45:29.049Z,101886.47
2022-08-12T13:47:57.826Z,101883.78
2022-08-12T13:50:29.949Z,101880.00
2022-08-12T13:52:58.556Z,101881.16
2022-08-12T13:55:30.976Z,101874.13
2022-08-12T13:58:01.717Z,101878.03
2022-08-12T14:00:34.381Z,101877.16
2022-08-12T14:03:07.403Z,101874.28
2022-08-12T14:05:39.252Z,101873.59
2022-08-12T14:08:09.177Z,101869.53
2022-08-12T14:10:51.044Z,101874.34
2022-08-12T14:14:03.979Z,101875.41
2022-08-12T14:16:37.486Z,101862.06
2022-08-12T14:19:10.441Z,101862.28
2022-08-12T14:21:59.509Z,101859.66
2022-08-12T14:24:40.677Z,101855.75
2022-08-12T14:27:11.398Z,101854.13
2022-08-12T14:30:05.107Z,101861.63
2022-08-12T14:32:39.948Z,101852.81
2022-08-12T14:35:09.903Z,101852.06
2022-08-12T14:37:55.232Z,101849.53
2022-08-12T14:40:28.643Z,101852.63
2022-08-12T14:42:59.852Z,101855.56
2022-08-12T14:45:44.355Z,101855.25
2022-08-12T14:48:16.182Z,101851.63
2022-08-12T14:51:03.265Z,101841.97
2022-08-12T14:59:57.475Z,101839.84
2022-08-12T15:02:21.198Z,101839.69
2022-08-12T15:04:59.744Z,101843.66
2022-08-12T15:07:33.319Z,101836.97
2022-08-12T15:10:13.446Z,101842.38
2022-08-12T15:12:41.898Z,101841.94
2022-08-12T15:15:12.449Z,101825.28
2022-08-12T15:17:40.659Z,101832.19
2022-08-12T15:20:33.188Z,101825.63
2022-08-12T15:22:58.230Z,101822.25
2022-08-12T15:25:27.185Z,101819.78
2022-08-12T15:28:04.758Z,101818.38
2022-08-12T15:30:39.382Z,101822.31
2022-08-12T15:33:12.681Z,101822.44
2022-08-12T15:35:52.039Z,101808.22
2022-08-12T15:38:24.577Z,101800.19
2022-08-12T15:40:54.225Z,101808.91
2022-08-12T15:43:51.521Z,101798.59
2022-08-12T15:46:15.857Z,101800.38
2022-08-12T15:48:46.842Z,101797.56
2022-08-12T15:51:59.292Z,101796.28
2022-08-12T15:54:33.145Z,101801.47
2022-08-12T15:57:08.243Z,101802.38
2022-08-12T16:00:04.578Z,101800.78
2022-08-12T16:02:29.903Z,101798.19
2022-08-12T16:04:58.806Z,101796.91
2022-08-12T16:07:37.095Z,101799.50
2022-08-12T16:10:09.273Z,101800.59
2022-08-12T16:12:54.426Z,101808.31
2022-08-12T16:15:26.689Z,101796.78
2022-08-12T16:18:15.230Z,101794.56
2022-08-12T16:20:47.469Z,101788.47
2022-08-12T16:23:26.990Z,101791.03
2022-08-12T16:26:15.193Z,101791.84
2022-08-12T16:28:47.611Z,101787.25
2022-08-12T16:31:23.238Z,101782.22
2022-08-12T16:34:00.012Z,101781.16
2022-08-12T16:36:29.706Z,101781.03
2022-08-12T16:39:01.602Z,101782.53
2022-08-12T16:41:33.497Z,101783.47
2022-08-12T16:44:08.463Z,101779.44
2022-08-12T16:46:37.579Z,101773.00
2022-08-12T16:49:13.225Z,101780.25
2022-08-12T16:51:46.850Z,101771.44
2022-08-12T16:54:17.205Z,101772.50
2022-08-12T16:56:54.989Z,101769.00
2022-08-12T16:59:30.741Z,101768.84
2022-08-12T17:02:00.391Z,101768.72
2022-08-12T17:04:30.481Z,101772.09
2022-08-12T17:06:58.617Z,101772.31
2022-08-12T17:09:27.403Z,101771.28
2022-08-12T17:12:09.362Z,101761.22
2022-08-12T17:14:37.936Z,101759.09
2022-08-12T17:17:18.534Z,101764.56
2022-08-12T17:20:30.506Z,101759.19
2022-08-12T17:22:56.525Z,101761.13
2022-08-12T17:25:25.855Z,101755.31
2022-08-12T17:27:58.251Z,101761.13
2022-08-12T17:30:29.079Z,101762.63
2022-08-12T17:33:02.762Z,101752.25
2022-08-12T17:35:37.627Z,101760.75
2022-08-12T17:38:13.482Z,101757.13
2022-08-12T17:40:46.662Z,101744.06
2022-08-12T17:43:57.703Z,101750.25
2022-08-12T17:46:13.225Z,101745.31
2022-08-12T17:48:55.182Z,101746.97
2022-08-12T17:51:26.349Z,101748.84
2022-08-12T17:54:10.407Z,101743.69
2022-08-12T17:56:40.275Z,101740.41
2022-08-12T17:59:12.530Z,101745.41
2022-08-12T18:01:45.475Z,101741.28
2022-08-12T18:04:21.789Z,101745.84
2022-08-12T18:06:55.786Z,101738.03
2022-08-12T18:09:32.045Z,101741.53
2022-08-12T18:12:24.690Z,101734.91
2022-08-12T18:14:58.851Z,101730.78
2022-08-12T18:17:28.330Z,101737.22
2022-08-12T18:20:06.281Z,101728.53
2022-08-12T18:22:38.625Z,101732.75
2022-08-12T18:26:12.380Z,101737.56
2022-08-12T18:28:16.477Z,101735.31
2022-08-12T18:30:53.055Z,101732.25
2022-08-12T18:33:25.827Z,101732.94
2022-08-12T18:35:57.070Z,101739.22
2022-08-12T18:38:28.278Z,101738.00
2022-08-12T18:41:21.797Z,101734.94
2022-08-12T18:44:01.239Z,101727.56
2022-08-12T18:46:54.035Z,101727.41
2022-08-12T18:49:30.742Z,101719.19
2022-08-12T18:52:04.318Z,101718.00
2022-08-12T18:54:37.623Z,101719.94
2022-08-12T18:57:16.567Z,101721.44
2022-08-12T18:59:59.600Z,101717.78
2022-08-12T19:02:36.035Z,101716.13
2022-08-12T19:05:10.907Z,101723.81
2022-08-12T19:07:49.212Z,101726.72
2022-08-12T19:10:23.060Z,101729.00
2022-08-12T19:13:10.685Z,101729.44
2022-08-12T19:15:43.115Z,101727.81
2022-08-12T19:18:13.309Z,101731.53
2022-08-12T19:20:43.927Z,101736.25
2022-08-12T19:23:21.252Z,101735.66
2022-08-12T19:26:00.448Z,101729.47
2022-08-12T19:28:35.393Z,101743.34
2022-08-12T19:31:56.890Z,101741.06
2022-08-12T19:37:26.695Z,101743.16
2022-08-12T19:40:09.397Z,101740.09
2022-08-12T19:42:53.591Z,101736.00
2022-08-12T19:45:43.982Z,101732.94
2022-08-12T19:48:18.063Z,101732.34
2022-08-12T19:50:50.588Z,101732.75
2022-08-12T19:53:22.625Z,101733.81
2022-08-12T19:55:53.421Z,101736.91
2022-08-12T19:58:24.954Z,101734.25
2022-08-12T20:00:54.729Z,101739.22
2022-08-12T20:03:39.282Z,101737.81
2022-08-12T20:06:21.627Z,101739.66
2022-08-12T20:08:56.381Z,101740.69
2022-08-12T20:12:13.335Z,101745.69
2022-08-12T20:14:19.553Z,101748.78
2022-08-12T20:16:57.705Z,101739.75
2022-08-12T20:20:00.999Z,101741.00
2022-08-12T20:22:24.876Z,101740.41
2022-08-12T20:25:01.040Z,101748.03
2022-08-12T20:28:05.428Z,101742.09
2022-08-12T20:30:37.283Z,101746.00
2022-08-12T20:33:17.297Z,101750.31
2022-08-12T20:36:13.706Z,101740.66
2022-08-12T20:38:39.793Z,101744.38
2022-08-12T20:41:16.671Z,101742.94
2022-08-12T20:43:49.423Z,101745.59
2022-08-12T20:46:19.994Z,101740.47
2022-08-12T20:48:54.785Z,101749.75
2022-08-12T20:51:27.532Z,101743.56
2022-08-12T20:53:59.445Z,101745.66
2022-08-12T20:56:34.712Z,101752.06
2022-08-12T20:59:06.696Z,101751.44
2022-08-12T21:01:47.711Z,101751.88
2022-08-12T21:04:36.714Z,101753.91
2022-08-12T21:07:09.090Z,101752.28
2022-08-12T21:09:42.062Z,101759.50
2022-08-12T21:12:37.440Z,101755.38
2022-08-12T21:15:23.285Z,101750.84
2022-08-12T21:18:15.499Z,101762.81
2022-08-12T21:20:50.915Z,101756.63
2022-08-12T21:23:21.604Z,101757.28
2022-08-12T21:25:51.660Z,101758.50
2022-08-12T21:28:22.212Z,101751.09
2022-08-12T21:32:37.613Z,101756.91
2022-08-12T21:34:06.577Z,101757.09
2022-08-12T21:36:35.578Z,101760.22
2022-08-12T21:39:20.142Z,101758.78
2022-08-12T21:41:52.091Z,101751.56
2022-08-12T21:44:32.544Z,101748.06
2022-08-12T21:47:20.930Z,101749.31
2022-08-12T21:50:06.472Z,101740.88
2022-08-12T21:52:36.653Z,101744.59
2022-08-12T21:55:18.233Z,101742.94
2022-08-12T21:57:53.083Z,101740.69
2022-08-12T22:00:33.161Z,101732.25
2022-08-12T22:04:01.699Z,101739.47
2022-08-12T22:06:30.723Z,101736.38
2022-08-12T22:09:15.788Z,101738.66
2022-08-12T22:11:56.108Z,101741.34
2022-08-12T22:14:27.992Z,101740.09
2022-08-12T22:16:57.805Z,101745.91
2022-08-12T22:19:27.032Z,101743.41
2022-08-12T22:21:58.541Z,101728.38
2022-08-12T22:24:30.353Z,101740.34
2022-08-12T22:27:16.029Z,101731.69
2022-08-12T22:30:06.099Z,101726.56
2022-08-12T22:32:36.599Z,101736.44
2022-08-12T22:35:24.252Z,101731.09
2022-08-12T22:38:10.865Z,101721.63
2022-08-12T22:40:39.817Z,101721.22
2022-08-12T22:43:29.234Z,101729.47
2022-08-12T22:46:14.737Z,101724.91
2022-08-12T22:48:50.181Z,101727.00
2022-08-12T22:51:22.154Z,101728.84
2022-08-12T22:53:55.099Z,101725.34
2022-08-12T22:56:31.021Z,101722.69
2022-08-12T22:59:02.516Z,101721.22
2022-08-12T23:02:01.551Z,101725.31
2022-08-12T23:04:27.584Z,101716.91
2022-08-12T23:07:05.548Z,101716.91
2022-08-12T23:09:48.797Z,101721.63
2022-08-12T23:12:40.966Z,101715.69
2022-08-12T23:15:14.652Z,101710.94
2022-08-12T23:17:43.572Z,101712.19
2022-08-12T23:20:15.158Z,101707.03
2022-08-12T23:23:08.834Z,101711.75
2022-08-12T23:25:54.243Z,101703.72
2022-08-12T23:28:42.442Z,101700.25
2022-08-12T23:31:10.938Z,101697.19
2022-08-12T23:34:01.575Z,101699.63
2022-08-12T23:36:39.044Z,101692.66
2022-08-12T23:40:14.052Z,101697.38
2022-08-12T23:42:18.147Z,101700.03
2022-08-12T23:44:48.378Z,101696.78
2022-08-12T23:47:21.108Z,101695.94
2022-08-12T23:49:57.220Z,101690.38
2022-08-12T23:52:33.889Z,101686.25
2022-08-12T23:55:23.034Z,101693.47
2022-08-12T23:58:20.906Z,101689.97
